Terminal Aerodrome Forecast
Issued by NWS Sioux Falls, SD

Home | Current Version | Previous Version | Text Only | Print | Product List | Glossary On
Versions: 1 2 3 4 5 6 7 8 9 10 11 12 13 14 15 16 17 18 19 20 21 22 23 24 25 26 27
000
FTUS43 KFSD 192058 AAA
TAFSUX
TAF AMD
KSUX 192058Z 1921/2018 15013G21KT P6SM SCT250
     FM200500 16012KT P6SM OVC025 WS015/20044KT
     FM200800 16011KT P6SM OVC008 WS015/20041KT
     FM200900 16010KT 6SM BR OVC008
     FM201200 15009KT 4SM BR OVC008
     FM201500 17010KT P6SM OVC015
     FM201700 22011KT P6SM OVC025=

USA.gov is the U.S. government's official web portal to all federal, state and local government web resources and services.